createdAt,value
2023-01-08T00:02:13.887Z,11.40
2023-01-08T00:04:42.190Z,1.00
2023-01-08T00:07:10.506Z,1.00
2023-01-08T00:09:38.851Z,1.00
2023-01-08T00:12:07.816Z,99.90
2023-01-08T00:14:36.060Z,99.90
2023-01-08T00:17:05.739Z,1.00
2023-01-08T00:19:34.312Z,1.00
2023-01-08T00:22:02.728Z,99.90
2023-01-08T00:24:31.020Z,99.90
2023-01-08T00:26:59.370Z,1.00
2023-01-08T00:29:27.635Z,1.00
2023-01-08T00:31:56.021Z,1.00
2023-01-08T00:34:25.748Z,1.00
2023-01-08T00:36:54.106Z,99.90
2023-01-08T00:39:22.511Z,15.60
2023-01-08T00:41:51.126Z,99.90
2023-01-08T00:44:19.412Z,1.00
2023-01-08T00:46:47.814Z,1.00
2023-01-08T00:49:16.106Z,99.90
2023-01-08T00:51:45.754Z,99.90
2023-01-08T00:54:14.194Z,99.90
2023-01-08T00:56:42.455Z,1.00
2023-01-08T00:59:10.732Z,1.00
2023-01-08T01:01:39.218Z,1.00
2023-01-08T01:04:07.565Z,1.00
2023-01-08T01:06:35.908Z,1.00
2023-01-08T01:09:05.769Z,1.00
2023-01-08T01:11:34.023Z,1.00
2023-01-08T01:14:02.452Z,1.00
2023-01-08T01:16:30.720Z,1.00
2023-01-08T01:18:59.172Z,1.00
2023-01-08T01:21:28.645Z,1.00
2023-01-08T01:23:57.263Z,1.00
2023-01-08T01:26:27.248Z,1.00
2023-01-08T01:28:56.118Z,1.00
2023-01-08T01:31:24.633Z,1.00
2023-01-08T01:33:52.946Z,1.00
2023-01-08T01:36:23.647Z,1.00
2023-01-08T01:38:52.706Z,1.00
2023-01-08T01:41:24.828Z,1.00
2023-01-08T01:43:54.782Z,99.90
2023-01-08T01:46:34.804Z,99.90
2023-01-08T01:49:06.054Z,1.00
2023-01-08T01:51:35.005Z,1.00
2023-01-08T01:54:04.034Z,99.90
2023-01-08T01:56:32.347Z,1.00
2023-01-08T01:59:02.130Z,1.00
2023-01-08T02:01:30.521Z,1.00
2023-01-08T02:03:59.100Z,1.00
2023-01-08T02:06:36.591Z,1.00
2023-01-08T02:09:08.634Z,1.00
2023-01-08T02:11:43.189Z,1.00
2023-01-08T02:14:17.659Z,1.00
2023-01-08T02:16:49.234Z,11.70
2023-01-08T02:19:22.360Z,99.90
2023-01-08T02:21:56.528Z,99.90
2023-01-08T02:24:29.286Z,99.90
2023-01-08T02:26:59.011Z,99.90
2023-01-08T02:29:28.549Z,99.90
2023-01-08T02:31:56.965Z,99.90
2023-01-08T02:34:25.223Z,99.90
2023-01-08T02:36:53.753Z,99.90
2023-01-08T02:39:36.078Z,99.90
2023-01-08T02:42:11.202Z,99.90
2023-01-08T02:44:47.068Z,99.90
2023-01-08T02:47:19.632Z,1.00
2023-01-08T02:49:48.002Z,1.00
2023-01-08T02:52:16.422Z,1.00
2023-01-08T02:54:44.782Z,1.00
2023-01-08T02:57:15.390Z,1.00
2023-01-08T02:59:44.869Z,99.90
2023-01-08T03:02:13.337Z,99.90
2023-01-08T03:04:44.903Z,1.00
2023-01-08T03:07:13.378Z,99.90
2023-01-08T03:09:41.757Z,1.00
2023-01-08T03:12:14.633Z,99.90
2023-01-08T03:14:45.383Z,99.90
2023-01-08T03:17:15.979Z,1.00
2023-01-08T03:19:45.705Z,99.90
2023-01-08T03:22:15.903Z,99.90
2023-01-08T03:24:44.585Z,1.00
2023-01-08T03:27:15.660Z,1.00
2023-01-08T03:29:43.957Z,1.00
2023-01-08T03:32:15.007Z,1.00
2023-01-08T03:34:43.977Z,1.00
2023-01-08T03:37:12.880Z,1.00
2023-01-08T03:39:43.154Z,1.00
2023-01-08T03:42:14.763Z,1.00
2023-01-08T03:44:43.089Z,1.00
2023-01-08T03:47:11.794Z,99.90
2023-01-08T03:49:40.518Z,1.00
2023-01-08T03:52:09.009Z,99.90
2023-01-08T03:54:37.927Z,99.90
2023-01-08T03:57:06.269Z,1.00
2023-01-08T03:59:35.898Z,99.90
2023-01-08T04:02:04.402Z,83.40
2023-01-08T04:04:32.765Z,96.80
2023-01-08T04:07:01.198Z,99.90
2023-01-08T04:09:29.483Z,99.90
2023-01-08T04:11:57.797Z,99.90
2023-01-08T04:14:26.105Z,1.00
2023-01-08T04:16:55.914Z,1.00
2023-01-08T04:19:24.224Z,99.90
2023-01-08T04:21:52.939Z,1.00
2023-01-08T04:24:21.213Z,1.00
2023-01-08T04:26:49.576Z,1.00
2023-01-08T04:29:17.907Z,99.90
2023-01-08T04:31:46.207Z,99.90
2023-01-08T04:34:16.036Z,91.10
2023-01-08T04:36:44.397Z,15.40
2023-01-08T04:39:12.825Z,99.90
2023-01-08T04:41:41.110Z,99.90
2023-01-08T04:44:09.924Z,27.90
2023-01-08T04:46:38.299Z,26.50
2023-01-08T04:49:06.588Z,99.90
2023-01-08T04:51:36.320Z,42.20
2023-01-08T04:54:04.749Z,99.90
2023-01-08T04:56:33.009Z,1.00
2023-01-08T04:59:01.363Z,1.00
2023-01-08T05:01:29.882Z,1.00
2023-01-08T05:03:58.986Z,95.70
2023-01-08T05:06:28.259Z,1.00
2023-01-08T05:08:58.246Z,99.90
2023-01-08T05:11:26.589Z,99.90
2023-01-08T05:13:54.928Z,1.00
2023-01-08T05:16:23.540Z,99.90
2023-01-08T05:18:51.905Z,1.00
2023-01-08T05:21:20.218Z,1.00
2023-01-08T05:23:48.777Z,1.00
2023-01-08T05:26:19.470Z,1.00
2023-01-08T05:28:47.977Z,14.80
2023-01-08T05:31:16.399Z,1.00
2023-01-08T05:33:44.720Z,1.00
2023-01-08T05:36:13.534Z,1.00
2023-01-08T05:38:41.906Z,1.00
2023-01-08T05:41:10.431Z,99.90
2023-01-08T05:43:40.222Z,1.00
2023-01-08T05:46:08.503Z,99.90
2023-01-08T05:48:37.338Z,99.90
2023-01-08T05:51:05.764Z,99.90
2023-01-08T05:53:34.142Z,99.90
2023-01-08T05:56:03.176Z,99.90
2023-01-08T05:58:31.465Z,99.90
2023-01-08T06:01:04.497Z,99.90
2023-01-08T06:03:32.815Z,99.90
2023-01-08T06:06:01.509Z,99.90
2023-01-08T06:08:29.876Z,99.90
2023-01-08T06:11:00.722Z,99.90
2023-01-08T06:13:29.138Z,78.80
2023-01-08T06:15:59.124Z,95.00
2023-01-08T06:18:28.884Z,99.90
2023-01-08T06:20:57.249Z,85.10
2023-01-08T06:23:25.831Z,56.10
2023-01-08T06:25:55.047Z,2.50
2023-01-08T06:28:23.515Z,99.90
2023-01-08T06:30:52.005Z,99.90
2023-01-08T06:33:21.560Z,99.90
2023-01-08T06:35:51.380Z,99.90
2023-01-08T06:38:20.266Z,99.90
2023-01-08T06:40:48.526Z,99.90
2023-01-08T06:43:17.803Z,99.90
2023-01-08T06:45:46.075Z,1.00
2023-01-08T06:48:14.330Z,99.90
2023-01-08T06:50:42.655Z,99.90
2023-01-08T06:53:12.326Z,99.90
2023-01-08T06:55:40.761Z,99.90
2023-01-08T06:58:09.053Z,1.00
2023-01-08T07:00:37.397Z,1.00
2023-01-08T07:03:06.056Z,99.90
2023-01-08T07:05:34.404Z,99.90
2023-01-08T07:08:02.696Z,1.00
2023-01-08T07:10:32.449Z,1.00
2023-01-08T07:13:00.838Z,1.00
2023-01-08T07:15:29.079Z,49.50
2023-01-08T07:17:58.765Z,99.90
2023-01-08T07:20:27.064Z,99.90
2023-01-08T07:22:55.381Z,99.90
2023-01-08T07:25:25.858Z,1.00
2023-01-08T07:27:55.676Z,99.90
2023-01-08T07:30:29.857Z,99.90
2023-01-08T07:33:02.030Z,1.00
2023-01-08T07:35:30.571Z,91.70
2023-01-08T07:37:58.829Z,99.90
2023-01-08T07:40:27.162Z,99.90
2023-01-08T07:43:03.063Z,99.90
2023-01-08T07:45:31.582Z,1.00
2023-01-08T07:48:00.173Z,1.00
2023-01-08T07:50:28.598Z,1.00
2023-01-08T07:52:59.089Z,1.00
2023-01-08T07:55:27.559Z,99.90
2023-01-08T07:57:55.947Z,99.90
2023-01-08T08:00:25.910Z,99.90
2023-01-08T08:02:54.397Z,99.90
2023-01-08T08:05:22.772Z,1.00
2023-01-08T08:07:51.077Z,1.00
2023-01-08T08:10:19.482Z,1.00
2023-01-08T08:12:47.789Z,1.00
2023-01-08T08:15:16.072Z,1.00
2023-01-08T08:17:48.098Z,1.00
2023-01-08T08:20:16.651Z,1.00
2023-01-08T08:22:44.965Z,1.00
2023-01-08T08:25:15.266Z,1.00
2023-01-08T08:27:43.696Z,1.00
2023-01-08T08:30:13.084Z,1.00
2023-01-08T08:32:41.474Z,1.00
2023-01-08T08:35:11.646Z,1.00
2023-01-08T08:37:40.180Z,1.00
2023-01-08T08:40:09.734Z,6.60
2023-01-08T08:42:38.251Z,1.00
2023-01-08T08:45:08.033Z,1.00
2023-01-08T08:47:36.335Z,1.00
2023-01-08T08:50:04.847Z,1.00
2023-01-08T08:52:34.866Z,1.00
2023-01-08T08:55:03.169Z,1.00
2023-01-08T08:57:31.544Z,1.00
2023-01-08T09:00:01.296Z,1.00
2023-01-08T09:02:30.078Z,1.00
2023-01-08T09:04:58.468Z,1.00
2023-01-08T09:07:26.887Z,1.00
2023-01-08T09:09:56.765Z,1.00
2023-01-08T09:12:25.348Z,1.00
2023-01-08T09:14:54.910Z,1.00
2023-01-08T09:17:23.309Z,1.00
2023-01-08T09:19:51.975Z,36.10
2023-01-08T09:22:20.407Z,4.50
2023-01-08T09:24:48.690Z,1.00
2023-01-08T09:27:18.527Z,1.00
2023-01-08T09:29:46.939Z,1.00
2023-01-08T09:32:15.254Z,1.00
2023-01-08T09:34:43.580Z,1.00
2023-01-08T09:37:11.972Z,1.00
2023-01-08T09:39:42.436Z,1.00
2023-01-08T09:42:12.938Z,1.00
2023-01-08T09:44:44.047Z,99.90
2023-01-08T09:47:28.082Z,99.90
2023-01-08T09:49:58.391Z,99.90
2023-01-08T09:52:26.712Z,99.90
2023-01-08T09:54:55.087Z,28.70
2023-01-08T09:57:23.467Z,99.90
2023-01-08T09:59:53.126Z,84.10
2023-01-08T10:02:22.919Z,1.00
2023-01-08T10:04:56.133Z,99.90
2023-01-08T10:07:25.531Z,99.90
2023-01-08T10:09:53.942Z,1.00
2023-01-08T10:12:26.066Z,99.90
2023-01-08T10:14:55.858Z,99.90
2023-01-08T10:17:28.008Z,55.00
2023-01-08T10:19:56.388Z,1.00
2023-01-08T10:22:25.587Z,1.00
2023-01-08T10:24:53.936Z,1.00
2023-01-08T10:27:23.421Z,1.00
2023-01-08T10:29:52.165Z,1.00
2023-01-08T10:32:29.545Z,1.00
2023-01-08T10:34:58.175Z,99.90
2023-01-08T10:37:28.230Z,99.90
2023-01-08T10:40:05.712Z,99.90
2023-01-08T10:42:35.263Z,99.90
2023-01-08T10:45:07.847Z,99.90
2023-01-08T10:47:38.676Z,99.90
2023-01-08T10:50:08.272Z,99.90
2023-01-08T10:52:36.786Z,99.90
2023-01-08T10:55:15.129Z,99.90
2023-01-08T10:57:43.855Z,99.90
2023-01-08T11:00:25.477Z,99.90
2023-01-08T11:02:55.265Z,99.90
2023-01-08T11:05:31.101Z,99.90
2023-01-08T11:07:59.898Z,99.90
2023-01-08T11:10:28.684Z,99.90
2023-01-08T11:12:57.886Z,99.90
2023-01-08T11:15:30.703Z,99.90
2023-01-08T11:18:08.047Z,99.90
2023-01-08T11:20:36.633Z,99.90
2023-01-08T11:23:08.091Z,99.90
2023-01-08T11:25:36.367Z,99.90
2023-01-08T11:28:04.766Z,99.90
2023-01-08T11:30:33.182Z,99.90
2023-01-08T11:33:05.269Z,99.90
2023-01-08T11:35:37.436Z,99.90
2023-01-08T11:38:06.878Z,99.90
2023-01-08T11:40:39.741Z,99.90
2023-01-08T11:43:15.915Z,99.90
2023-01-08T11:45:54.389Z,99.90
2023-01-08T11:48:37.772Z,99.90
2023-01-08T11:51:43.923Z,99.90
2023-01-08T11:54:20.683Z,99.90
2023-01-08T11:57:02.565Z,99.90
2023-01-08T11:59:34.945Z,99.90
2023-01-08T12:02:06.496Z,99.90
2023-01-08T12:04:53.418Z,99.90
2023-01-08T12:07:26.278Z,99.90
2023-01-08T12:09:58.194Z,99.90
2023-01-08T12:12:35.675Z,99.90
2023-01-08T12:15:08.954Z,99.90
2023-01-08T12:18:01.835Z,5.00
2023-01-08T12:20:33.768Z,1.00
2023-01-08T12:23:08.624Z,1.00
2023-01-08T12:25:56.569Z,1.00
2023-01-08T12:28:45.192Z,1.00
2023-01-08T12:31:22.604Z,1.00
2023-01-08T12:33:52.642Z,1.00
2023-01-08T12:36:23.875Z,1.00
2023-01-08T12:38:55.619Z,1.00
2023-01-08T12:41:23.993Z,1.00
2023-01-08T12:43:54.657Z,1.00
2023-01-08T12:46:23.170Z,1.00
2023-01-08T12:48:52.406Z,1.00
2023-01-08T12:51:25.693Z,1.00
2023-01-08T12:53:59.464Z,1.00
2023-01-08T12:56:32.149Z,1.00
2023-01-08T12:59:08.559Z,1.00
2023-01-08T13:01:42.238Z,1.00
2023-01-08T13:04:10.952Z,1.00
2023-01-08T13:06:39.277Z,1.00
2023-01-08T13:09:09.045Z,1.00
2023-01-08T13:11:38.761Z,1.00
2023-01-08T13:14:07.656Z,1.00
2023-01-08T13:16:39.046Z,1.00
2023-01-08T13:19:07.646Z,1.00
2023-01-08T13:21:37.747Z,1.00
2023-01-08T13:24:22.277Z,1.00
2023-01-08T13:26:50.582Z,1.00
2023-01-08T13:29:27.973Z,1.00
2023-01-08T13:31:56.327Z,1.00
2023-01-08T13:34:35.274Z,1.00
2023-01-08T13:37:03.707Z,1.00
2023-01-08T13:39:39.865Z,1.00
2023-01-08T13:42:23.570Z,1.00
2023-01-08T13:44:52.507Z,1.00
2023-01-08T13:47:24.416Z,1.00
2023-01-08T13:49:53.759Z,1.00
2023-01-08T13:52:43.146Z,1.00
2023-01-08T13:55:18.062Z,1.00
2023-01-08T13:57:48.216Z,1.00
2023-01-08T14:00:20.362Z,1.00
2023-01-08T14:02:50.798Z,1.00
2023-01-08T14:05:27.564Z,9.30
2023-01-08T14:07:56.098Z,18.40
2023-01-08T14:10:25.812Z,68.20
2023-01-08T14:12:54.590Z,99.90
2023-01-08T14:15:24.948Z,99.90
2023-01-08T14:17:53.327Z,99.90
2023-01-08T14:20:31.915Z,99.90
2023-01-08T14:23:00.930Z,99.90
2023-01-08T14:25:30.652Z,99.90
2023-01-08T14:28:00.317Z,99.90
2023-01-08T14:30:28.727Z,99.90
2023-01-08T14:32:57.444Z,99.90
2023-01-08T14:35:31.483Z,99.90
2023-01-08T14:38:01.144Z,99.90
2023-01-08T14:40:32.905Z,99.90
2023-01-08T14:43:04.916Z,99.90
2023-01-08T14:45:34.471Z,99.90
2023-01-08T14:48:04.289Z,99.90
2023-01-08T14:50:34.356Z,99.90
2023-01-08T14:53:06.949Z,99.90
2023-01-08T14:55:37.517Z,99.90
2023-01-08T14:58:05.900Z,99.90
2023-01-08T15:00:34.196Z,99.90
2023-01-08T15:03:02.493Z,1.00
2023-01-08T15:05:31.884Z,1.00
2023-01-08T15:08:02.424Z,1.00
2023-01-08T15:10:37.928Z,1.00
2023-01-08T15:13:07.776Z,1.00
2023-01-08T15:15:39.253Z,1.00
2023-01-08T15:18:09.036Z,1.00
2023-01-08T15:20:37.359Z,1.00
2023-01-08T15:23:05.722Z,1.00
2023-01-08T15:25:34.307Z,1.00
2023-01-08T15:28:04.570Z,1.00
2023-01-08T15:30:35.986Z,1.00
2023-01-08T15:33:09.237Z,1.00
2023-01-08T15:35:37.500Z,1.00
2023-01-08T15:38:05.800Z,1.00
2023-01-08T15:40:34.103Z,1.00
2023-01-08T15:43:11.668Z,1.00
2023-01-08T15:45:40.737Z,1.00
2023-01-08T15:48:09.308Z,1.00
2023-01-08T15:50:38.917Z,99.90
2023-01-08T15:53:08.948Z,99.90
2023-01-08T15:55:37.754Z,99.90
2023-01-08T15:58:07.493Z,99.90
2023-01-08T16:00:35.790Z,1.00
2023-01-08T16:03:07.235Z,1.00
2023-01-08T16:05:35.636Z,1.00
2023-01-08T16:08:03.992Z,1.00
2023-01-08T16:10:32.651Z,1.00
2023-01-08T16:13:01.335Z,1.00
2023-01-08T16:15:31.105Z,99.90
2023-01-08T16:18:00.311Z,99.90
2023-01-08T16:20:28.659Z,98.30
2023-01-08T16:22:57.983Z,99.90
2023-01-08T16:25:26.286Z,98.80
2023-01-08T16:27:54.962Z,99.90
2023-01-08T16:30:23.239Z,99.90
2023-01-08T16:32:53.833Z,99.90
2023-01-08T16:35:22.881Z,99.90
2023-01-08T16:37:51.215Z,99.90
2023-01-08T16:40:19.718Z,99.90
2023-01-08T16:42:48.083Z,99.90
2023-01-08T16:45:16.486Z,1.00
2023-01-08T16:47:44.862Z,1.00
2023-01-08T16:50:14.604Z,1.00
2023-01-08T16:52:43.214Z,69.60
2023-01-08T16:55:11.997Z,99.90
2023-01-08T16:57:40.337Z,1.00
2023-01-08T17:00:09.803Z,1.00
2023-01-08T17:02:39.049Z,1.00
2023-01-08T17:05:08.185Z,99.90
2023-01-08T17:07:37.956Z,99.90
2023-01-08T17:10:07.201Z,99.90
2023-01-08T17:12:35.617Z,1.00
2023-01-08T17:15:03.998Z,1.00
2023-01-08T17:17:32.332Z,1.00
2023-01-08T17:20:00.688Z,1.00
2023-01-08T17:22:29.018Z,15.80
2023-01-08T17:24:58.736Z,99.90
2023-01-08T17:27:27.121Z,99.90
2023-01-08T17:29:55.405Z,99.90
2023-01-08T17:32:23.775Z,99.90
2023-01-08T17:34:52.044Z,99.90
2023-01-08T17:37:20.455Z,99.90
2023-01-08T17:39:50.039Z,99.90
2023-01-08T17:42:25.707Z,99.90
2023-01-08T17:44:54.158Z,99.90
2023-01-08T17:47:22.512Z,92.30
2023-01-08T17:49:51.104Z,1.00
2023-01-08T17:52:19.505Z,1.00
2023-01-08T17:54:49.249Z,1.00
2023-01-08T17:57:17.653Z,1.00
2023-01-08T17:59:47.321Z,1.00
2023-01-08T18:02:16.487Z,1.00
2023-01-08T18:04:45.673Z,1.00
2023-01-08T18:07:14.551Z,99.90
2023-01-08T18:09:42.993Z,1.00
2023-01-08T18:12:11.491Z,99.90
2023-01-08T18:14:41.571Z,99.90
2023-01-08T18:17:11.421Z,1.00
2023-01-08T18:19:39.834Z,99.90
2023-01-08T18:22:08.151Z,99.90
2023-01-08T18:24:36.430Z,1.00
2023-01-08T18:27:05.010Z,99.90
2023-01-08T18:29:33.373Z,1.00
2023-01-08T18:32:02.230Z,1.00
2023-01-08T18:34:31.999Z,1.00
2023-01-08T18:37:00.523Z,99.90
2023-01-08T18:39:29.953Z,99.90
2023-01-08T18:42:15.540Z,99.90
2023-01-08T18:44:43.859Z,99.90
2023-01-08T18:47:12.802Z,1.00
2023-01-08T18:49:42.487Z,1.00
2023-01-08T18:52:14.059Z,1.00
2023-01-08T18:54:42.508Z,99.90
2023-01-08T18:57:11.113Z,1.00
2023-01-08T18:59:39.517Z,99.90
2023-01-08T19:02:08.112Z,99.90
2023-01-08T19:04:36.853Z,99.90
2023-01-08T19:07:06.664Z,99.90
2023-01-08T19:09:35.128Z,99.90
2023-01-08T19:12:03.573Z,94.00
2023-01-08T19:14:32.079Z,94.80
2023-01-08T19:17:00.587Z,45.70
2023-01-08T19:19:29.196Z,99.90
2023-01-08T19:21:57.537Z,91.20
2023-01-08T19:24:27.508Z,68.10
2023-01-08T19:26:55.878Z,46.00
2023-01-08T19:29:24.372Z,99.90
2023-01-08T19:31:52.924Z,99.90
2023-01-08T19:34:21.315Z,99.90
2023-01-08T19:36:49.683Z,99.90
2023-01-08T19:39:17.987Z,99.90
2023-01-08T19:42:05.055Z,99.90
2023-01-08T19:44:33.575Z,99.90
2023-01-08T19:47:01.937Z,99.90
2023-01-08T19:49:30.267Z,1.00
2023-01-08T19:51:58.844Z,99.90
2023-01-08T19:54:27.328Z,99.90
2023-01-08T19:56:57.297Z,99.90
2023-01-08T19:59:25.936Z,1.00
2023-01-08T20:01:54.496Z,1.00
2023-01-08T20:04:23.140Z,99.90
2023-01-08T20:06:52.424Z,1.00
2023-01-08T20:09:20.999Z,1.00
2023-01-08T20:11:49.352Z,1.00
2023-01-08T20:14:20.986Z,1.00
2023-01-08T20:16:49.630Z,1.00
2023-01-08T20:19:17.905Z,1.00
2023-01-08T20:21:46.477Z,1.00
2023-01-08T20:24:15.259Z,98.30
2023-01-08T20:26:44.158Z,37.90
2023-01-08T20:29:12.921Z,1.00
2023-01-08T20:31:43.962Z,1.00
2023-01-08T20:34:14.447Z,1.00
2023-01-08T20:36:42.931Z,5.70
2023-01-08T20:39:12.966Z,99.90
2023-01-08T20:41:46.606Z,99.90
2023-01-08T20:44:24.518Z,99.90
2023-01-08T20:46:54.730Z,99.90
2023-01-08T20:49:25.346Z,99.90
2023-01-08T20:51:59.141Z,99.90
2023-01-08T20:54:28.137Z,99.90
2023-01-08T20:56:56.834Z,99.90
2023-01-08T20:59:25.261Z,99.90
2023-01-08T21:01:55.133Z,99.90
2023-01-08T21:04:24.769Z,99.90
2023-01-08T21:06:53.275Z,99.90
2023-01-08T21:09:21.636Z,99.90
2023-01-08T21:11:50.908Z,99.90
2023-01-08T21:14:19.511Z,1.00
2023-01-08T21:16:47.998Z,1.00
2023-01-08T21:19:17.856Z,1.00
2023-01-08T21:21:46.969Z,1.00
2023-01-08T21:24:15.763Z,1.00
2023-01-08T21:26:45.734Z,1.00
2023-01-08T21:29:14.839Z,1.00
2023-01-08T21:31:43.413Z,5.50
2023-01-08T21:34:11.989Z,1.00
2023-01-08T21:36:41.699Z,99.90
2023-01-08T21:39:10.955Z,99.90
2023-01-08T21:41:56.563Z,1.00
2023-01-08T21:44:42.691Z,1.00
2023-01-08T21:47:12.432Z,1.00
2023-01-08T21:49:40.798Z,1.00
2023-01-08T21:52:27.741Z,1.00
2023-01-08T21:54:58.366Z,1.00
2023-01-08T21:57:28.086Z,1.00
2023-01-08T21:59:56.733Z,1.00
2023-01-08T22:02:25.277Z,1.00
2023-01-08T22:04:55.776Z,1.00
2023-01-08T22:07:25.976Z,99.90
2023-01-08T22:09:54.548Z,99.90
2023-01-08T22:12:24.251Z,99.90
2023-01-08T22:14:53.622Z,99.90
2023-01-08T22:17:21.878Z,1.00
2023-01-08T22:19:50.195Z,1.00
2023-01-08T22:22:18.639Z,1.00
2023-01-08T22:24:48.420Z,1.00
2023-01-08T22:27:17.128Z,1.00
2023-01-08T22:29:45.442Z,1.00
2023-01-08T22:32:13.809Z,1.00
2023-01-08T22:34:42.381Z,99.90
2023-01-08T22:37:10.825Z,99.90
2023-01-08T22:39:39.169Z,99.90
2023-01-08T22:42:08.976Z,99.90
2023-01-08T22:44:37.421Z,99.90
2023-01-08T22:47:06.261Z,99.90
2023-01-08T22:49:34.701Z,99.90
2023-01-08T22:52:03.050Z,55.80
2023-01-08T22:54:31.319Z,13.00
2023-01-08T22:56:59.570Z,73.60
2023-01-08T22:59:29.323Z,79.70
2023-01-08T23:01:57.613Z,1.00
2023-01-08T23:04:25.897Z,1.00
2023-01-08T23:06:54.257Z,1.00
2023-01-08T23:09:22.572Z,1.00
2023-01-08T23:11:50.929Z,1.00
2023-01-08T23:14:19.303Z,1.00
2023-01-08T23:16:49.094Z,49.30
2023-01-08T23:19:17.659Z,89.40
2023-01-08T23:21:46.009Z,99.90
2023-01-08T23:24:14.899Z,99.90
2023-01-08T23:26:43.336Z,78.20
2023-01-08T23:29:11.890Z,57.00
2023-01-08T23:31:40.322Z,25.40
2023-01-08T23:34:10.042Z,1.00
2023-01-08T23:36:38.356Z,1.00
2023-01-08T23:39:06.651Z,1.00
2023-01-08T23:41:35.446Z,1.00
2023-01-08T23:44:05.638Z,1.00
2023-01-08T23:46:34.068Z,1.00
2023-01-08T23:49:02.519Z,1.00
2023-01-08T23:51:32.313Z,1.00
2023-01-08T23:54:00.689Z,1.00
2023-01-08T23:56:29.031Z,1.00
2023-01-08T23:58:57.991Z,1.00
